Time;durP1;ratioP1;P1;durP2;ratioP2;P2;SDS_P1;SDS_P2;PMS_P1;PMS_P2;Temp;Humidity;BMP_temperature;BMP_pressure;BME280_temperature;BME280_humidity;BME280_pressure;Samples;Min_cycle;Max_cycle;Signal;HPM_P1;HPM_P2
2023/12/02 00:00:15;;;;;;;16.43;9.97;;;;;;;;;;5021079;28;20935;-87
2023/12/02 00:02:41;;;;;;;16.27;8.87;;;;;;;;;;5033072;28;20109;-83
2023/12/02 00:05:07;;;;;;;18.40;10.53;;;;;;;;;;5010722;28;20756;-84
2023/12/02 00:07:35;;;;;;;17.13;9.43;;;;;;;;;;5017287;28;20434;-87
2023/12/02 00:10:04;;;;;;;15.37;8.47;;;;;;;;;;5019331;28;20272;-91
2023/12/02 00:12:30;;;;;;;16.03;8.67;;;;;;;;;;5015354;28;20314;-90
2023/12/02 00:14:56;;;;;;;16.23;10.23;;;;;;;;;;5030178;28;20292;-89
2023/12/02 00:17:22;;;;;;;16.07;9.07;;;;;;;;;;5020901;28;20267;-88
2023/12/02 00:19:48;;;;;;;17.43;10.77;;;;;;;;;;5017680;28;20608;-89
2023/12/02 00:22:14;;;;;;;15.13;9.37;;;;;;;;;;5018428;28;20106;-89
2023/12/02 00:24:40;;;;;;;15.67;9.37;;;;;;;;;;5017793;28;20034;-86
2023/12/02 00:27:06;;;;;;;13.13;8.50;;;;;;;;;;5019151;28;20276;-86
2023/12/02 00:29:32;;;;;;;17.20;10.10;;;;;;;;;;5014053;28;20040;-86
2023/12/02 00:32:00;;;;;;;18.63;10.03;;;;;;;;;;5015825;28;20033;-88
2023/12/02 00:34:26;;;;;;;14.87;8.83;;;;;;;;;;5028261;28;20033;-88
2023/12/02 00:36:52;;;;;;;15.50;9.50;;;;;;;;;;5026514;28;20333;-84
2023/12/02 00:39:18;;;;;;;16.37;9.50;;;;;;;;;;5014097;28;20084;-86
2023/12/02 00:41:44;;;;;;;18.70;10.07;;;;;;;;;;5011897;28;20297;-89
2023/12/02 00:44:10;;;;;;;19.60;11.10;;;;;;;;;;5016704;28;21850;-88
2023/12/02 00:46:36;;;;;;;15.93;9.00;;;;;;;;;;5015413;28;20026;-87
2023/12/02 00:49:02;;;;;;;17.50;10.67;;;;;;;;;;5017076;28;20055;-86
2023/12/02 00:51:28;;;;;;;20.17;11.00;;;;;;;;;;5017684;28;20367;-88
2023/12/02 00:53:57;;;;;;;18.63;10.40;;;;;;;;;;5017381;28;20342;-85
2023/12/02 00:56:23;;;;;;;17.87;10.33;;;;;;;;;;5015732;28;20359;-86
2023/12/02 00:58:49;;;;;;;18.63;10.27;;;;;;;;;;5016872;28;20375;-90
2023/12/02 01:01:14;;;;;;;18.33;9.97;;;;;;;;;;5016265;28;20048;-90
2023/12/02 01:03:41;;;;;;;18.57;10.43;;;;;;;;;;5017701;28;20061;-90
2023/12/02 01:06:07;;;;;;;19.50;11.33;;;;;;;;;;5017548;28;20279;-86
2023/12/02 01:08:33;;;;;;;17.73;10.40;;;;;;;;;;5017269;28;20720;-88
2023/12/02 01:10:59;;;;;;;21.07;10.67;;;;;;;;;;5016088;28;20387;-90
2023/12/02 01:13:51;;;;;;;17.50;9.60;;;;;;;;;;5015864;28;20048;-88
2023/12/02 01:16:17;;;;;;;16.57;9.70;;;;;;;;;;5015209;28;20033;-88
2023/12/02 01:18:43;;;;;;;18.60;10.20;;;;;;;;;;5017456;28;20847;-88
2023/12/02 01:21:09;;;;;;;19.80;9.90;;;;;;;;;;5017570;28;20029;-89
2023/12/02 01:23:35;;;;;;;15.93;9.67;;;;;;;;;;5015476;28;20025;-87
2023/12/02 01:26:03;;;;;;;18.40;10.53;;;;;;;;;;5018795;28;20052;-89
2023/12/02 01:28:29;;;;;;;16.60;9.47;;;;;;;;;;5016268;28;20025;-90
2023/12/02 01:30:55;;;;;;;16.10;10.30;;;;;;;;;;5015618;28;20334;-88
2023/12/02 01:33:21;;;;;;;18.83;10.07;;;;;;;;;;5016005;28;21712;-87
2023/12/02 01:35:49;;;;;;;17.57;10.07;;;;;;;;;;5016892;28;20029;-88
2023/12/02 01:38:20;;;;;;;16.60;9.33;;;;;;;;;;5016121;28;20600;-89
2023/12/02 01:40:46;;;;;;;18.50;9.43;;;;;;;;;;5033400;28;20359;-90
2023/12/02 01:43:33;;;;;;;20.53;10.20;;;;;;;;;;5017320;28;20602;-86
2023/12/02 01:45:59;;;;;;;19.63;10.37;;;;;;;;;;5015454;28;20033;-86
2023/12/02 01:48:28;;;;;;;17.47;9.30;;;;;;;;;;5015957;28;20339;-88
2023/12/02 01:50:54;;;;;;;15.60;9.87;;;;;;;;;;5016842;28;20029;-91
2023/12/02 01:53:20;;;;;;;17.73;10.20;;;;;;;;;;5015577;28;20414;-89
2023/12/02 01:55:47;;;;;;;17.83;9.67;;;;;;;;;;5033697;28;20036;-88
2023/12/02 01:58:13;;;;;;;18.47;9.60;;;;;;;;;;5016802;28;20991;-85
2023/12/02 02:00:39;;;;;;;15.47;9.00;;;;;;;;;;5015069;28;20268;-89
2023/12/02 02:03:05;;;;;;;15.43;8.60;;;;;;;;;;5014648;28;20083;-90
2023/12/02 02:05:31;;;;;;;15.97;8.63;;;;;;;;;;5014084;28;20755;-91
2023/12/02 02:08:00;;;;;;;15.20;8.83;;;;;;;;;;5016630;28;20268;-88
2023/12/02 02:10:26;;;;;;;17.80;9.83;;;;;;;;;;5016901;28;20280;-88
2023/12/02 02:12:52;;;;;;;13.83;8.47;;;;;;;;;;5016174;28;20272;-89
2023/12/02 02:15:18;;;;;;;17.47;8.97;;;;;;;;;;5016316;28;20748;-89
2023/12/02 02:17:44;;;;;;;15.43;8.37;;;;;;;;;;5016101;28;20276;-88
2023/12/02 02:20:10;;;;;;;14.00;8.00;;;;;;;;;;5015989;28;20377;-86
2023/12/02 02:22:36;;;;;;;13.13;7.40;;;;;;;;;;5016569;28;20025;-86
2023/12/02 02:25:02;;;;;;;14.30;7.87;;;;;;;;;;5017275;28;20280;-87
2023/12/02 02:27:28;;;;;;;13.70;8.13;;;;;;;;;;5037808;28;20271;-87
2023/12/02 02:29:54;;;;;;;16.03;8.80;;;;;;;;;;5035683;28;20284;-87
2023/12/02 02:32:20;;;;;;;14.73;8.10;;;;;;;;;;5018120;28;20032;-88
2023/12/02 02:34:47;;;;;;;17.20;8.93;;;;;;;;;;5037415;28;20283;-85
2023/12/02 02:37:13;;;;;;;13.47;9.03;;;;;;;;;;5020570;28;20276;-84
2023/12/02 02:39:39;;;;;;;18.60;8.93;;;;;;;;;;5021523;28;20429;-89
2023/12/02 02:42:08;;;;;;;16.80;8.00;;;;;;;;;;5020392;28;20740;-86
2023/12/02 02:44:34;;;;;;;13.07;7.57;;;;;;;;;;5018417;28;20499;-90
2023/12/02 02:47:00;;;;;;;15.03;8.00;;;;;;;;;;5037700;28;20696;-88
2023/12/02 02:49:27;;;;;;;12.27;7.47;;;;;;;;;;5012875;28;20378;-86
2023/12/02 02:51:53;;;;;;;14.43;7.63;;;;;;;;;;5033899;28;20034;-90
2023/12/02 02:54:19;;;;;;;13.03;8.33;;;;;;;;;;5013232;28;20281;-87
2023/12/02 02:56:45;;;;;;;14.30;7.40;;;;;;;;;;5018800;28;20390;-90
2023/12/02 02:59:11;;;;;;;15.13;8.23;;;;;;;;;;5028180;28;20364;-88
2023/12/02 03:01:41;;;;;;;14.77;7.90;;;;;;;;;;5019387;28;20057;-87
2023/12/02 03:04:07;;;;;;;14.07;7.53;;;;;;;;;;5018735;28;20017;-88
2023/12/02 03:06:34;;;;;;;15.83;8.07;;;;;;;;;;5019731;28;20272;-86
2023/12/02 03:09:00;;;;;;;12.83;7.33;;;;;;;;;;5018000;28;20461;-87
2023/12/02 03:11:26;;;;;;;16.70;8.07;;;;;;;;;;5013768;28;20276;-89
2023/12/02 03:13:52;;;;;;;14.83;7.43;;;;;;;;;;5018376;28;20025;-85
2023/12/02 03:16:18;;;;;;;18.67;8.43;;;;;;;;;;5036975;28;20286;-84
2023/12/02 03:18:44;;;;;;;17.13;8.70;;;;;;;;;;5019202;28;20367;-88
2023/12/02 03:21:10;;;;;;;12.63;7.73;;;;;;;;;;5012411;28;20699;-83
2023/12/02 03:23:36;;;;;;;15.87;7.90;;;;;;;;;;5019311;28;20311;-83
2023/12/02 03:26:02;;;;;;;16.37;8.33;;;;;;;;;;5010016;28;20022;-86
2023/12/02 03:28:28;;;;;;;14.03;7.83;;;;;;;;;;5016464;28;20030;-90
2023/12/02 03:30:54;;;;;;;13.67;7.20;;;;;;;;;;5019006;28;20405;-90
2023/12/02 03:33:19;;;;;;;13.27;7.97;;;;;;;;;;5020287;28;20101;-88
2023/12/02 03:35:45;;;;;;;15.37;7.87;;;;;;;;;;5019652;28;20035;-87
2023/12/02 03:38:11;;;;;;;16.07;8.27;;;;;;;;;;5032475;28;20041;-87
2023/12/02 03:40:40;;;;;;;16.13;8.00;;;;;;;;;;5018235;28;20059;-82
2023/12/02 03:43:06;;;;;;;17.40;8.17;;;;;;;;;;5019549;28;20028;-84
2023/12/02 03:45:32;;;;;;;15.57;8.37;;;;;;;;;;5032979;28;20360;-87
2023/12/02 03:47:57;;;;;;;13.73;7.87;;;;;;;;;;5019557;28;20083;-87
2023/12/02 03:50:23;;;;;;;16.27;8.93;;;;;;;;;;5029003;28;20041;-81
2023/12/02 03:52:49;;;;;;;15.83;8.90;;;;;;;;;;5018111;28;20068;-81
2023/12/02 03:55:15;;;;;;;14.93;9.03;;;;;;;;;;5018372;28;20300;-87
2023/12/02 03:57:41;;;;;;;15.23;8.70;;;;;;;;;;5030811;28;20474;-85
2023/12/02 04:00:11;;;;;;;14.20;7.67;;;;;;;;;;5017726;28;20612;-86
2023/12/02 04:02:38;;;;;;;15.40;7.93;;;;;;;;;;5017112;28;20264;-85
2023/12/02 04:05:06;;;;;;;15.97;8.87;;;;;;;;;;5017097;28;20272;-87
2023/12/02 04:07:31;;;;;;;14.13;8.70;;;;;;;;;;5035870;28;20321;-89
2023/12/02 04:09:57;;;;;;;15.07;8.83;;;;;;;;;;5012564;28;20283;-88
2023/12/02 04:12:23;;;;;;;16.00;8.53;;;;;;;;;;5017656;28;20029;-87
2023/12/02 04:14:49;;;;;;;10.40;7.23;;;;;;;;;;5017070;28;20998;-89
2023/12/02 04:17:15;;;;;;;13.97;8.50;;;;;;;;;;5014828;28;20128;-89
2023/12/02 04:19:43;;;;;;;14.87;8.83;;;;;;;;;;5030526;28;20296;-84
2023/12/02 04:22:12;;;;;;;14.57;8.60;;;;;;;;;;5016946;28;20306;-84
2023/12/02 04:24:39;;;;;;;13.13;7.87;;;;;;;;;;5017285;28;20033;-85
2023/12/02 04:27:07;;;;;;;14.43;8.53;;;;;;;;;;5018477;28;20343;-87
2023/12/02 04:29:35;;;;;;;14.73;8.50;;;;;;;;;;5012944;28;20379;-88
2023/12/02 04:32:01;;;;;;;11.93;8.00;;;;;;;;;;5028554;28;20366;-87
2023/12/02 04:34:27;;;;;;;15.83;8.60;;;;;;;;;;5012942;28;20288;-89
2023/12/02 04:36:53;;;;;;;12.60;8.20;;;;;;;;;;5017895;28;20280;-85
2023/12/02 04:39:21;;;;;;;13.97;8.30;;;;;;;;;;5010033;28;20296;-82
2023/12/02 04:41:47;;;;;;;15.33;8.37;;;;;;;;;;5012923;28;20033;-88
2023/12/02 04:44:13;;;;;;;14.50;8.23;;;;;;;;;;5014567;28;20276;-87
2023/12/02 04:46:42;;;;;;;12.77;7.67;;;;;;;;;;5011719;28;20458;-83
2023/12/02 04:49:08;;;;;;;14.07;7.47;;;;;;;;;;5015922;28;20069;-88
2023/12/02 04:51:34;;;;;;;11.50;6.63;;;;;;;;;;5016686;28;20272;-85
2023/12/02 04:54:00;;;;;;;11.93;7.03;;;;;;;;;;5021550;28;20130;-88
2023/12/02 04:56:28;;;;;;;13.50;6.93;;;;;;;;;;5018554;28;20276;-88
2023/12/02 04:58:54;;;;;;;12.03;6.93;;;;;;;;;;5019855;28;20299;-88
2023/12/02 05:01:20;;;;;;;9.93;6.60;;;;;;;;;;5020074;28;20264;-87
2023/12/02 05:03:46;;;;;;;11.50;7.53;;;;;;;;;;5037798;28;20268;-89
2023/12/02 05:06:17;;;;;;;11.03;6.77;;;;;;;;;;5016462;28;20831;-87
2023/12/02 05:08:45;;;;;;;10.47;6.10;;;;;;;;;;5019301;28;20092;-86
2023/12/02 05:11:21;;;;;;;10.03;6.37;;;;;;;;;;5038845;28;20268;-90
2023/12/02 05:13:48;;;;;;;12.13;7.00;;;;;;;;;;5006694;28;20342;-81
2023/12/02 05:16:14;;;;;;;11.97;7.23;;;;;;;;;;5019528;28;20264;-86
2023/12/02 05:18:40;;;;;;;16.00;8.37;;;;;;;;;;5011198;28;20310;-87
2023/12/02 05:21:07;;;;;;;12.27;7.00;;;;;;;;;;5014617;28;20272;-86
2023/12/02 05:23:33;;;;;;;11.13;7.03;;;;;;;;;;5019450;28;20322;-83
2023/12/02 05:25:59;;;;;;;12.10;6.97;;;;;;;;;;5019338;28;20723;-89
2023/12/02 05:28:25;;;;;;;13.90;7.73;;;;;;;;;;5018603;28;20268;-84
2023/12/02 05:30:54;;;;;;;14.07;7.57;;;;;;;;;;5018043;28;20304;-86
2023/12/02 05:33:22;;;;;;;12.30;7.90;;;;;;;;;;5009076;28;20423;-85
2023/12/02 05:35:48;;;;;;;14.03;8.33;;;;;;;;;;5018130;28;20252;-83
2023/12/02 05:38:14;;;;;;;13.70;7.80;;;;;;;;;;5010554;28;20288;-86
2023/12/02 05:40:40;;;;;;;13.40;8.13;;;;;;;;;;5034391;28;20739;-86
2023/12/02 05:43:06;;;;;;;14.03;8.30;;;;;;;;;;5019369;28;20257;-84
2023/12/02 05:45:32;;;;;;;12.87;8.00;;;;;;;;;;5036364;28;20086;-86
2023/12/02 05:47:58;;;;;;;14.53;8.97;;;;;;;;;;5016275;28;20442;-83
2023/12/02 05:50:24;;;;;;;13.67;8.47;;;;;;;;;;5013933;28;20349;-88
2023/12/02 05:52:50;;;;;;;16.70;8.77;;;;;;;;;;5016985;28;20477;-86
2023/12/02 05:55:16;;;;;;;14.70;8.60;;;;;;;;;;5019108;28;20026;-87
2023/12/02 05:57:46;;;;;;;14.20;8.30;;;;;;;;;;5008850;28;20272;-87
2023/12/02 06:00:12;;;;;;;14.17;8.93;;;;;;;;;;5034976;28;20281;-85
2023/12/02 06:02:38;;;;;;;15.90;8.67;;;;;;;;;;5039505;28;20260;-85
2023/12/02 06:05:04;;;;;;;13.43;8.63;;;;;;;;;;5023006;28;20268;-83
2023/12/02 06:07:30;;;;;;;13.50;8.53;;;;;;;;;;5023156;28;20597;-82
2023/12/02 06:09:56;;;;;;;13.70;8.67;;;;;;;;;;5022765;28;20279;-82
2023/12/02 06:12:22;;;;;;;15.20;8.20;;;;;;;;;;5023168;28;20087;-82
2023/12/02 06:14:49;;;;;;;16.17;8.90;;;;;;;;;;5039163;28;20078;-86
2023/12/02 06:17:15;;;;;;;15.43;9.37;;;;;;;;;;5022881;28;20037;-83
2023/12/02 06:19:41;;;;;;;12.93;8.20;;;;;;;;;;5019700;28;20316;-82
2023/12/02 06:22:07;;;;;;;14.50;8.57;;;;;;;;;;5037285;28;20033;-84
2023/12/02 06:24:33;;;;;;;13.90;8.50;;;;;;;;;;5019176;28;20282;-88
2023/12/02 06:26:59;;;;;;;15.77;8.90;;;;;;;;;;5020049;28;20026;-83
2023/12/02 06:29:25;;;;;;;14.93;8.23;;;;;;;;;;5019653;28;20286;-86
2023/12/02 06:31:51;;;;;;;14.77;8.27;;;;;;;;;;5016734;28;20504;-85
2023/12/02 06:34:18;;;;;;;15.50;8.83;;;;;;;;;;5019960;28;20049;-84
2023/12/02 06:36:44;;;;;;;15.67;9.00;;;;;;;;;;5019696;28;20312;-82
2023/12/02 06:39:14;;;;;;;15.33;8.43;;;;;;;;;;5019154;28;20327;-85
2023/12/02 06:41:41;;;;;;;15.77;8.37;;;;;;;;;;5034766;28;20033;-84
2023/12/02 06:44:07;;;;;;;17.27;9.23;;;;;;;;;;5013364;28;22160;-82
2023/12/02 06:46:33;;;;;;;18.43;9.43;;;;;;;;;;5019780;28;20280;-82
2023/12/02 06:48:59;;;;;;;15.47;8.87;;;;;;;;;;5037514;28;20375;-85
2023/12/02 06:51:29;;;;;;;18.17;9.13;;;;;;;;;;5013502;28;20094;-82
2023/12/02 06:53:55;;;;;;;18.37;9.33;;;;;;;;;;5018352;28;20344;-84
2023/12/02 06:56:22;;;;;;;17.17;10.63;;;;;;;;;;5035224;28;20275;-84
2023/12/02 06:58:49;;;;;;;20.87;10.50;;;;;;;;;;5030554;28;20288;-89
2023/12/02 07:01:24;;;;;;;17.60;9.57;;;;;;;;;;5019160;28;20319;-85
2023/12/02 07:03:54;;;;;;;16.33;9.13;;;;;;;;;;5019610;28;20803;-82
2023/12/02 07:06:20;;;;;;;15.17;8.60;;;;;;;;;;5020836;28;20284;-84
2023/12/02 07:08:47;;;;;;;17.33;9.00;;;;;;;;;;5019422;28;20284;-84
2023/12/02 07:11:13;;;;;;;16.87;9.33;;;;;;;;;;5019207;28;20288;-82
2023/12/02 07:13:39;;;;;;;18.70;8.87;;;;;;;;;;5018675;28;20282;-82
2023/12/02 07:16:05;;;;;;;17.00;9.07;;;;;;;;;;5018799;28;20366;-82
2023/12/02 07:18:31;;;;;;;14.93;8.17;;;;;;;;;;5018618;28;20037;-84
2023/12/02 07:20:57;;;;;;;15.30;8.93;;;;;;;;;;5019885;28;20348;-85
2023/12/02 07:23:25;;;;;;;16.83;9.17;;;;;;;;;;5019898;28;20017;-83
2023/12/02 07:25:51;;;;;;;15.33;8.80;;;;;;;;;;5019139;28;20283;-84
2023/12/02 07:28:20;;;;;;;17.20;9.40;;;;;;;;;;5019478;28;20276;-84
2023/12/02 07:30:48;;;;;;;18.03;9.93;;;;;;;;;;5019155;28;20302;-82
2023/12/02 07:33:14;;;;;;;18.80;9.40;;;;;;;;;;5017741;28;20284;-84
2023/12/02 07:35:40;;;;;;;15.77;9.07;;;;;;;;;;5017379;28;20291;-83
2023/12/02 07:38:06;;;;;;;17.03;9.50;;;;;;;;;;5018200;28;20291;-82
2023/12/02 07:40:32;;;;;;;18.50;9.73;;;;;;;;;;5018006;28;20286;-83
2023/12/02 07:42:58;;;;;;;18.13;9.40;;;;;;;;;;5018585;28;20288;-83
2023/12/02 07:45:24;;;;;;;17.10;9.80;;;;;;;;;;5018583;28;20029;-84
2023/12/02 07:47:50;;;;;;;17.37;9.63;;;;;;;;;;5018564;28;20108;-81
2023/12/02 07:50:16;;;;;;;15.83;9.20;;;;;;;;;;5035811;28;20045;-82
2023/12/02 07:52:44;;;;;;;18.67;9.40;;;;;;;;;;5018439;28;20061;-82
2023/12/02 07:55:10;;;;;;;17.00;9.23;;;;;;;;;;5018282;28;20053;-85
2023/12/02 07:57:36;;;;;;;19.63;10.07;;;;;;;;;;5018301;28;20296;-81
2023/12/02 08:00:03;;;;;;;19.07;9.90;;;;;;;;;;5018140;28;20441;-81
2023/12/02 08:02:29;;;;;;;18.33;9.77;;;;;;;;;;5016516;28;20051;-81
2023/12/02 08:04:57;;;;;;;18.60;9.27;;;;;;;;;;5018406;28;20724;-81
2023/12/02 08:07:23;;;;;;;18.10;9.87;;;;;;;;;;5018215;28;20272;-82
2023/12/02 08:09:52;;;;;;;18.80;10.07;;;;;;;;;;5018122;28;20284;-80
2023/12/02 08:12:18;;;;;;;21.87;10.97;;;;;;;;;;5018837;28;20310;-83
2023/12/02 08:14:44;;;;;;;19.97;10.87;;;;;;;;;;5018560;28;20276;-81
2023/12/02 08:17:10;;;;;;;24.80;11.30;;;;;;;;;;5018157;28;20287;-84
2023/12/02 08:19:36;;;;;;;18.80;10.47;;;;;;;;;;5018693;28;20033;-82
2023/12/02 08:22:02;;;;;;;21.67;10.07;;;;;;;;;;5017573;28;20037;-80
2023/12/02 08:24:32;;;;;;;22.00;11.07;;;;;;;;;;5017467;28;20037;-84
2023/12/02 08:26:58;;;;;;;24.80;11.90;;;;;;;;;;5014900;28;20299;-83
2023/12/02 08:29:24;;;;;;;22.63;12.07;;;;;;;;;;5016074;28;20280;-81
2023/12/02 08:31:50;;;;;;;23.87;11.30;;;;;;;;;;5017813;28;20290;-81
2023/12/02 08:34:16;;;;;;;20.50;11.83;;;;;;;;;;5017544;28;20283;-81
2023/12/02 08:36:43;;;;;;;21.33;11.07;;;;;;;;;;5016789;28;20319;-82
2023/12/02 08:39:09;;;;;;;19.37;11.20;;;;;;;;;;5017956;28;20033;-81
2023/12/02 08:41:36;;;;;;;25.17;11.53;;;;;;;;;;5034478;28;20361;-83
2023/12/02 08:44:02;;;;;;;23.33;11.90;;;;;;;;;;5016587;28;20276;-83
2023/12/02 08:46:28;;;;;;;20.67;11.00;;;;;;;;;;5017495;28;20285;-82
2023/12/02 08:48:54;;;;;;;22.73;11.67;;;;;;;;;;5017691;28;20753;-82
2023/12/02 08:51:21;;;;;;;21.70;11.53;;;;;;;;;;5015941;28;20073;-80
2023/12/02 08:53:49;;;;;;;22.23;11.30;;;;;;;;;;5026272;28;20033;-82
2023/12/02 08:56:15;;;;;;;23.03;11.67;;;;;;;;;;5018784;28;20276;-83
2023/12/02 08:58:40;;;;;;;24.43;12.00;;;;;;;;;;5026714;28;20342;-82
2023/12/02 09:01:07;;;;;;;23.73;13.07;;;;;;;;;;5030480;28;20021;-81
2023/12/02 09:03:32;;;;;;;21.60;11.20;;;;;;;;;;5036496;28;20080;-81
2023/12/02 09:05:58;;;;;;;29.53;11.40;;;;;;;;;;5017329;28;20272;-82
2023/12/02 09:08:24;;;;;;;22.83;11.87;;;;;;;;;;5028990;28;20612;-82
2023/12/02 09:10:50;;;;;;;22.63;11.23;;;;;;;;;;5016109;28;20113;-81
2023/12/02 09:13:35;;;;;;;21.10;10.83;;;;;;;;;;5030338;28;20049;-84
2023/12/02 09:16:01;;;;;;;23.37;11.50;;;;;;;;;;5013973;28;20025;-83
2023/12/02 09:18:29;;;;;;;22.17;11.33;;;;;;;;;;5031836;28;20295;-81
2023/12/02 09:20:58;;;;;;;21.00;10.43;;;;;;;;;;5028596;28;20083;-83
2023/12/02 09:23:29;;;;;;;23.20;10.77;;;;;;;;;;5029967;28;20278;-84
2023/12/02 09:26:02;;;;;;;23.23;11.10;;;;;;;;;;5017922;28;20268;-82
2023/12/02 09:28:29;;;;;;;26.33;12.68;;;;;;;;;;5033044;28;20355;-81
2023/12/02 09:31:04;;;;;;;23.50;11.03;;;;;;;;;;5018734;28;20112;-82
2023/12/02 09:33:30;;;;;;;21.70;11.27;;;;;;;;;;5026546;28;20264;-82
2023/12/02 09:35:57;;;;;;;23.23;10.80;;;;;;;;;;5027235;28;20366;-82
2023/12/02 09:38:26;;;;;;;23.63;11.30;;;;;;;;;;5015433;28;20290;-82
2023/12/02 09:40:52;;;;;;;18.70;10.40;;;;;;;;;;5027621;28;20371;-81
2023/12/02 09:43:27;;;;;;;21.07;11.20;;;;;;;;;;5013433;28;20371;-81
2023/12/02 09:45:59;;;;;;;24.67;12.10;;;;;;;;;;5014024;28;20036;-81
2023/12/02 09:48:27;;;;;;;23.33;11.40;;;;;;;;;;5015959;28;20272;-80
2023/12/02 09:50:56;;;;;;;20.57;10.40;;;;;;;;;;5030077;28;20037;-81
2023/12/02 09:53:25;;;;;;;21.93;11.20;;;;;;;;;;5016550;28;20276;-80
2023/12/02 09:55:59;;;;;;;20.27;9.53;;;;;;;;;;5027018;28;20326;-79
2023/12/02 09:58:28;;;;;;;18.97;10.03;;;;;;;;;;5010418;28;20361;-80
2023/12/02 10:01:19;;;;;;;21.07;11.27;;;;;;;;;;5026423;28;20288;-80
2023/12/02 10:03:48;;;;;;;21.13;10.97;;;;;;;;;;5004815;28;20261;-83
2023/12/02 10:06:27;;;;;;;23.77;11.07;;;;;;;;;;5014616;28;20268;-80
2023/12/02 10:09:11;;;;;;;21.10;10.37;;;;;;;;;;5024434;28;20787;-81
2023/12/02 10:11:48;;;;;;;19.07;10.13;;;;;;;;;;5027683;28;20276;-81
2023/12/02 10:14:15;;;;;;;19.23;10.63;;;;;;;;;;5029227;28;20901;-80
2023/12/02 10:16:43;;;;;;;21.50;11.20;;;;;;;;;;5033559;28;20291;-81
2023/12/02 10:19:12;;;;;;;23.53;9.47;;;;;;;;;;5016231;28;20391;-81
2023/12/02 10:21:42;;;;;;;19.33;10.50;;;;;;;;;;5033698;28;20283;-80
2023/12/02 10:24:12;;;;;;;20.80;11.30;;;;;;;;;;5031013;28;20755;-83
2023/12/02 10:26:42;;;;;;;20.70;10.80;;;;;;;;;;5016502;28;20287;-83
2023/12/02 10:29:09;;;;;;;23.27;12.60;;;;;;;;;;5017486;28;20291;-81
2023/12/02 10:31:36;;;;;;;22.60;11.13;;;;;;;;;;5027705;28;20294;-80
2023/12/02 10:34:05;;;;;;;21.43;11.90;;;;;;;;;;5016249;28;20279;-82
2023/12/02 10:36:33;;;;;;;21.47;11.40;;;;;;;;;;5015579;28;20307;-80
2023/12/02 10:39:09;;;;;;;21.47;11.83;;;;;;;;;;5015737;28;20623;-81
2023/12/02 10:41:38;;;;;;;21.30;10.90;;;;;;;;;;5015052;28;20272;-80
2023/12/02 10:44:07;;;;;;;19.97;10.90;;;;;;;;;;5013927;28;20276;-80
2023/12/02 10:46:34;;;;;;;17.27;9.47;;;;;;;;;;5015453;28;20723;-81
2023/12/02 10:49:00;;;;;;;17.73;9.63;;;;;;;;;;5021839;28;20272;-81
2023/12/02 10:51:29;;;;;;;16.33;9.03;;;;;;;;;;5038128;28;20732;-81
2023/12/02 10:53:58;;;;;;;19.47;10.33;;;;;;;;;;5016508;28;20267;-80
2023/12/02 10:56:27;;;;;;;15.33;8.43;;;;;;;;;;5033044;28;20268;-80
2023/12/02 10:58:53;;;;;;;17.80;9.53;;;;;;;;;;5033577;28;20292;-81
2023/12/02 11:01:39;;;;;;;15.50;9.13;;;;;;;;;;5019651;28;20338;-82
2023/12/02 11:04:14;;;;;;;15.53;8.63;;;;;;;;;;5018571;28;20283;-81
2023/12/02 11:06:41;;;;;;;16.70;8.80;;;;;;;;;;5018077;28;20260;-85
2023/12/02 11:09:18;;;;;;;14.00;8.13;;;;;;;;;;5021516;28;20314;-81
2023/12/02 11:11:47;;;;;;;16.97;8.17;;;;;;;;;;5019365;28;20280;-80
2023/12/02 11:14:20;;;;;;;17.70;9.07;;;;;;;;;;5031067;28;20303;-79
2023/12/02 11:17:08;;;;;;;14.43;7.90;;;;;;;;;;5006603;28;20326;-81
2023/12/02 11:19:34;;;;;;;13.80;7.40;;;;;;;;;;5027759;28;20422;-81
2023/12/02 11:22:03;;;;;;;11.87;7.03;;;;;;;;;;5017227;28;20705;-80
2023/12/02 11:24:32;;;;;;;13.27;7.60;;;;;;;;;;5021358;28;20021;-81
2023/12/02 11:27:06;;;;;;;13.73;8.23;;;;;;;;;;5023179;28;20405;-80
2023/12/02 11:29:35;;;;;;;10.77;6.80;;;;;;;;;;5020986;28;20272;-81
2023/12/02 11:32:13;;;;;;;17.37;7.37;;;;;;;;;;5038078;28;20272;-82
2023/12/02 11:34:46;;;;;;;13.37;8.03;;;;;;;;;;5012518;28;20252;-82
2023/12/02 11:37:33;;;;;;;16.50;9.20;;;;;;;;;;5015088;28;20331;-82
2023/12/02 11:40:12;;;;;;;17.00;9.60;;;;;;;;;;5007697;28;20303;-81
2023/12/02 11:42:46;;;;;;;17.80;8.97;;;;;;;;;;5021718;28;20306;-82
2023/12/02 11:45:22;;;;;;;16.07;8.93;;;;;;;;;;5021764;28;20596;-81
2023/12/02 11:47:51;;;;;;;19.57;9.50;;;;;;;;;;5021851;28;20274;-82
2023/12/02 11:50:36;;;;;;;16.83;10.03;;;;;;;;;;5007491;28;20783;-85
2023/12/02 11:53:22;;;;;;;15.37;9.20;;;;;;;;;;5012416;28;20272;-84
2023/12/02 11:55:57;;;;;;;16.60;10.10;;;;;;;;;;5020100;28;20608;-81
2023/12/02 11:58:27;;;;;;;18.60;11.33;;;;;;;;;;5018521;28;20271;-81
2023/12/02 12:01:16;;;;;;;17.30;9.93;;;;;;;;;;5040713;28;20284;-80
2023/12/02 12:03:56;;;;;;;17.70;10.93;;;;;;;;;;5041655;28;20261;-82
2023/12/02 12:06:28;;;;;;;19.20;10.37;;;;;;;;;;5017439;28;20311;-81
2023/12/02 12:08:54;;;;;;;15.43;8.82;;;;;;;;;;5020571;28;20339;-80
2023/12/02 12:11:20;;;;;;;21.63;11.53;;;;;;;;;;5019910;28;20053;-84
2023/12/02 12:13:47;;;;;;;19.60;10.67;;;;;;;;;;5020995;28;20059;-81
2023/12/02 12:16:13;;;;;;;22.83;12.10;;;;;;;;;;5036672;28;20264;-81
2023/12/02 12:18:39;;;;;;;19.50;10.30;;;;;;;;;;5017373;28;20659;-83
2023/12/02 12:21:09;;;;;;;20.40;11.17;;;;;;;;;;5015988;28;20025;-82
2023/12/02 12:23:35;;;;;;;19.50;10.83;;;;;;;;;;5025516;28;20034;-80
2023/12/02 12:26:03;;;;;;;18.17;10.97;;;;;;;;;;5030566;28;20295;-79
2023/12/02 12:28:31;;;;;;;22.33;11.93;;;;;;;;;;5017024;28;20037;-83
2023/12/02 12:30:57;;;;;;;23.03;12.47;;;;;;;;;;5017717;28;20287;-81
2023/12/02 12:33:23;;;;;;;20.47;11.73;;;;;;;;;;5028066;28;20276;-80
2023/12/02 12:35:49;;;;;;;21.20;11.70;;;;;;;;;;5017576;28;20123;-82
2023/12/02 12:38:16;;;;;;;27.27;15.17;;;;;;;;;;5016748;28;20045;-81
2023/12/02 12:40:43;;;;;;;26.40;14.27;;;;;;;;;;5017130;28;20319;-80
2023/12/02 12:43:09;;;;;;;20.97;12.13;;;;;;;;;;5016174;28;20300;-83
2023/12/02 12:45:35;;;;;;;21.30;12.30;;;;;;;;;;5016440;28;20288;-82
2023/12/02 12:48:01;;;;;;;19.77;10.93;;;;;;;;;;5013224;28;20294;-82
2023/12/02 12:50:33;;;;;;;17.20;9.83;;;;;;;;;;5017177;28;20117;-82
2023/12/02 12:53:03;;;;;;;16.73;10.27;;;;;;;;;;5016197;28;20284;-81
2023/12/02 12:55:30;;;;;;;18.13;10.47;;;;;;;;;;5017452;28;20353;-81
2023/12/02 12:58:04;;;;;;;21.60;11.37;;;;;;;;;;5016189;28;20795;-81
2023/12/02 13:00:32;;;;;;;19.93;11.47;;;;;;;;;;5017480;28;20276;-83
2023/12/02 13:03:10;;;;;;;20.53;11.07;;;;;;;;;;5016311;28;20311;-82
2023/12/02 13:05:42;;;;;;;20.67;11.10;;;;;;;;;;5015786;28;20273;-80
2023/12/02 13:08:14;;;;;;;23.67;13.02;;;;;;;;;;5017149;28;20348;-81
2023/12/02 13:10:42;;;;;;;20.50;11.52;;;;;;;;;;5015818;28;20033;-81
2023/12/02 13:13:09;;;;;;;21.80;11.40;;;;;;;;;;5015615;28;20040;-81
2023/12/02 13:15:39;;;;;;;20.43;11.63;;;;;;;;;;5015668;28;20272;-81
2023/12/02 13:18:08;;;;;;;16.80;10.30;;;;;;;;;;5016606;28;20335;-82
2023/12/02 13:20:35;;;;;;;21.03;11.17;;;;;;;;;;5032690;28;20942;-82
2023/12/02 13:23:10;;;;;;;21.10;11.10;;;;;;;;;;5016949;28;20842;-82
2023/12/02 13:25:37;;;;;;;21.10;11.33;;;;;;;;;;5016648;28;20287;-80
2023/12/02 13:28:12;;;;;;;20.03;11.30;;;;;;;;;;5015778;28;20279;-80
2023/12/02 13:30:39;;;;;;;22.33;12.57;;;;;;;;;;5033418;28;20291;-81
2023/12/02 13:33:13;;;;;;;23.07;12.50;;;;;;;;;;5015589;28;20616;-80
2023/12/02 13:35:41;;;;;;;18.23;10.33;;;;;;;;;;5033696;28;20306;-80
2023/12/02 13:38:25;;;;;;;25.20;10.97;;;;;;;;;;5016331;28;20280;-81
2023/12/02 13:41:10;;;;;;;20.03;11.37;;;;;;;;;;5016097;28;20798;-79
2023/12/02 13:43:41;;;;;;;23.00;10.43;;;;;;;;;;5016290;28;20284;-81
2023/12/02 13:46:07;;;;;;;18.57;10.97;;;;;;;;;;5033321;28;20268;-80
2023/12/02 13:48:56;;;;;;;16.43;9.03;;;;;;;;;;5015961;28;20286;-79
2023/12/02 13:51:28;;;;;;;20.37;10.93;;;;;;;;;;5015464;28;20288;-80
2023/12/02 13:54:10;;;;;;;19.10;10.20;;;;;;;;;;5017004;28;20363;-80
2023/12/02 13:56:45;;;;;;;19.73;9.98;;;;;;;;;;5031476;28;20338;-79
2023/12/02 13:59:19;;;;;;;17.70;10.40;;;;;;;;;;5017817;28;20445;-80
2023/12/02 14:01:52;;;;;;;19.83;10.93;;;;;;;;;;5016368;28;20649;-82
2023/12/02 14:04:46;;;;;;;21.90;11.43;;;;;;;;;;5017207;28;20272;-80
2023/12/02 14:07:36;;;;;;;20.80;11.00;;;;;;;;;;5014912;28;20296;-80
2023/12/02 14:10:03;;;;;;;20.83;10.80;;;;;;;;;;5033656;28;20314;-80
2023/12/02 14:12:29;;;;;;;19.70;11.40;;;;;;;;;;5014508;28;20291;-79
2023/12/02 14:14:58;;;;;;;24.17;12.27;;;;;;;;;;5017638;28;20276;-79
2023/12/02 14:17:34;;;;;;;27.90;11.50;;;;;;;;;;5016733;28;20451;-83
2023/12/02 14:20:15;;;;;;;27.23;10.87;;;;;;;;;;5014880;28;20287;-81
2023/12/02 14:22:56;;;;;;;17.60;10.43;;;;;;;;;;5032055;28;20268;-79
2023/12/02 14:25:32;;;;;;;25.33;11.70;;;;;;;;;;5037521;28;20276;-79
2023/12/02 14:28:12;;;;;;;21.70;10.77;;;;;;;;;;5019560;28;20740;-81
2023/12/02 14:30:41;;;;;;;21.23;11.23;;;;;;;;;;5037300;28;20279;-80